sensor_id;sensor_type;location;lat;lon;timestamp;P1;durP1;ratioP1;P2;durP2;ratioP2
21158;SDS011;10737;45.436;4.390;2023-02-28T00:05:01;9.43;;;8.43;;
21158;SDS011;10737;45.436;4.390;2023-02-28T00:10:05;9.15;;;8.27;;
21158;SDS011;10737;45.436;4.390;2023-02-28T00:15:10;9.35;;;8.45;;
21158;SDS011;10737;45.436;4.390;2023-02-28T00:20:13;13.00;;;9.15;;
21158;SDS011;10737;45.436;4.390;2023-02-28T00:25:18;9.38;;;8.35;;
21158;SDS011;10737;45.436;4.390;2023-02-28T00:30:23;9.93;;;8.85;;
21158;SDS011;10737;45.436;4.390;2023-02-28T00:35:26;10.10;;;9.07;;
21158;SDS011;10737;45.436;4.390;2023-02-28T00:40:29;13.70;;;8.68;;
21158;SDS011;10737;45.436;4.390;2023-02-28T00:45:33;9.95;;;8.95;;
21158;SDS011;10737;45.436;4.390;2023-02-28T00:50:38;10.45;;;9.48;;
21158;SDS011;10737;45.436;4.390;2023-02-28T00:55:41;12.70;;;8.65;;
21158;SDS011;10737;45.436;4.390;2023-02-28T01:00:46;9.30;;;8.30;;
21158;SDS011;10737;45.436;4.390;2023-02-28T01:05:50;9.85;;;7.82;;
21158;SDS011;10737;45.436;4.390;2023-02-28T01:10:54;9.60;;;8.60;;
21158;SDS011;10737;45.436;4.390;2023-02-28T01:15:59;10.50;;;8.23;;
21158;SDS011;10737;45.436;4.390;2023-02-28T01:21:03;10.35;;;9.35;;
21158;SDS011;10737;45.436;4.390;2023-02-28T01:26:06;9.48;;;8.25;;
21158;SDS011;10737;45.436;4.390;2023-02-28T01:31:15;10.85;;;8.98;;
21158;SDS011;10737;45.436;4.390;2023-02-28T01:36:19;9.82;;;8.43;;
21158;SDS011;10737;45.436;4.390;2023-02-28T01:41:23;9.80;;;8.80;;
21158;SDS011;10737;45.436;4.390;2023-02-28T01:46:29;11.00;;;8.70;;
21158;SDS011;10737;45.436;4.390;2023-02-28T01:51:33;9.55;;;8.65;;
21158;SDS011;10737;45.436;4.390;2023-02-28T01:56:39;10.70;;;8.38;;
21158;SDS011;10737;45.436;4.390;2023-02-28T02:01:46;10.10;;;8.25;;
21158;SDS011;10737;45.436;4.390;2023-02-28T02:06:49;10.23;;;8.75;;
21158;SDS011;10737;45.436;4.390;2023-02-28T02:11:52;9.07;;;8.00;;
21158;SDS011;10737;45.436;4.390;2023-02-28T02:17:04;8.75;;;7.93;;
21158;SDS011;10737;45.436;4.390;2023-02-28T02:22:12;8.95;;;8.05;;
21158;SDS011;10737;45.436;4.390;2023-02-28T02:27:27;8.13;;;7.32;;
21158;SDS011;10737;45.436;4.390;2023-02-28T02:38:01;7.85;;;7.05;;
21158;SDS011;10737;45.436;4.390;2023-02-28T02:43:11;8.82;;;7.97;;
21158;SDS011;10737;45.436;4.390;2023-02-28T02:48:16;8.18;;;7.38;;
21158;SDS011;10737;45.436;4.390;2023-02-28T02:53:23;9.25;;;8.45;;
21158;SDS011;10737;45.436;4.390;2023-02-28T02:58:29;8.88;;;8.00;;
21158;SDS011;10737;45.436;4.390;2023-02-28T03:03:33;10.07;;;7.93;;
21158;SDS011;10737;45.436;4.390;2023-02-28T03:08:38;9.68;;;8.20;;
21158;SDS011;10737;45.436;4.390;2023-02-28T03:19:08;8.70;;;7.90;;
21158;SDS011;10737;45.436;4.390;2023-02-28T03:24:18;8.95;;;8.05;;
21158;SDS011;10737;45.436;4.390;2023-02-28T03:29:22;10.65;;;7.30;;
21158;SDS011;10737;45.436;4.390;2023-02-28T03:34:29;8.90;;;7.82;;
21158;SDS011;10737;45.436;4.390;2023-02-28T03:39:35;8.68;;;7.68;;
21158;SDS011;10737;45.436;4.390;2023-02-28T03:44:40;8.27;;;7.50;;
21158;SDS011;10737;45.436;4.390;2023-02-28T03:49:45;9.68;;;8.68;;
21158;SDS011;10737;45.436;4.390;2023-02-28T03:54:52;9.32;;;8.43;;
21158;SDS011;10737;45.436;4.390;2023-02-28T03:59:58;14.10;;;8.77;;
21158;SDS011;10737;45.436;4.390;2023-02-28T04:05:02;9.43;;;8.55;;
21158;SDS011;10737;45.436;4.390;2023-02-28T04:10:08;9.38;;;8.05;;
21158;SDS011;10737;45.436;4.390;2023-02-28T04:15:12;9.63;;;7.80;;
21158;SDS011;10737;45.436;4.390;2023-02-28T04:20:15;9.00;;;7.40;;
21158;SDS011;10737;45.436;4.390;2023-02-28T04:25:19;8.40;;;7.57;;
21158;SDS011;10737;45.436;4.390;2023-02-28T04:30:23;9.63;;;8.27;;
21158;SDS011;10737;45.436;4.390;2023-02-28T04:35:26;10.57;;;8.40;;
21158;SDS011;10737;45.436;4.390;2023-02-28T04:40:31;9.35;;;8.45;;
21158;SDS011;10737;45.436;4.390;2023-02-28T04:45:34;8.98;;;8.07;;
21158;SDS011;10737;45.436;4.390;2023-02-28T04:50:37;10.73;;;8.20;;
21158;SDS011;10737;45.436;4.390;2023-02-28T04:55:42;8.85;;;7.95;;
21158;SDS011;10737;45.436;4.390;2023-02-28T05:00:45;8.05;;;7.32;;
21158;SDS011;10737;45.436;4.390;2023-02-28T05:05:48;8.20;;;7.40;;
21158;SDS011;10737;45.436;4.390;2023-02-28T05:10:53;8.98;;;8.18;;
21158;SDS011;10737;45.436;4.390;2023-02-28T05:15:56;11.07;;;8.60;;
21158;SDS011;10737;45.436;4.390;2023-02-28T05:20:59;8.93;;;8.02;;
21158;SDS011;10737;45.436;4.390;2023-02-28T05:26:05;9.50;;;8.02;;
21158;SDS011;10737;45.436;4.390;2023-02-28T05:31:08;9.23;;;8.43;;
21158;SDS011;10737;45.436;4.390;2023-02-28T05:36:13;7.90;;;7.13;;
21158;SDS011;10737;45.436;4.390;2023-02-28T05:41:18;10.20;;;8.25;;
21158;SDS011;10737;45.436;4.390;2023-02-28T05:46:22;12.00;;;8.40;;
21158;SDS011;10737;45.436;4.390;2023-02-28T05:51:25;10.07;;;9.02;;
21158;SDS011;10737;45.436;4.390;2023-02-28T05:56:30;9.80;;;8.27;;
21158;SDS011;10737;45.436;4.390;2023-02-28T06:01:34;9.70;;;8.73;;
21158;SDS011;10737;45.436;4.390;2023-02-28T06:06:37;9.15;;;8.32;;
21158;SDS011;10737;45.436;4.390;2023-02-28T06:11:42;9.57;;;8.05;;
21158;SDS011;10737;45.436;4.390;2023-02-28T06:16:45;10.00;;;8.65;;
21158;SDS011;10737;45.436;4.390;2023-02-28T06:21:48;30.10;;;10.90;;
21158;SDS011;10737;45.436;4.390;2023-02-28T06:26:53;52.22;;;12.60;;
21158;SDS011;10737;45.436;4.390;2023-02-28T06:31:56;11.63;;;7.85;;
21158;SDS011;10737;45.436;4.390;2023-02-28T06:37:00;11.10;;;8.55;;
21158;SDS011;10737;45.436;4.390;2023-02-28T06:42:05;9.38;;;8.20;;
21158;SDS011;10737;45.436;4.390;2023-02-28T06:47:08;9.25;;;7.78;;
21158;SDS011;10737;45.436;4.390;2023-02-28T06:52:11;9.52;;;8.10;;
21158;SDS011;10737;45.436;4.390;2023-02-28T06:57:16;11.40;;;8.05;;
21158;SDS011;10737;45.436;4.390;2023-02-28T07:02:19;14.20;;;8.57;;
21158;SDS011;10737;45.436;4.390;2023-02-28T07:07:22;10.35;;;7.97;;
21158;SDS011;10737;45.436;4.390;2023-02-28T07:12:26;8.95;;;8.05;;
21158;SDS011;10737;45.436;4.390;2023-02-28T07:17:29;9.60;;;7.55;;
21158;SDS011;10737;45.436;4.390;2023-02-28T07:22:33;9.13;;;7.30;;
21158;SDS011;10737;45.436;4.390;2023-02-28T07:27:37;9.27;;;8.30;;
21158;SDS011;10737;45.436;4.390;2023-02-28T07:32:40;8.95;;;7.43;;
21158;SDS011;10737;45.436;4.390;2023-02-28T07:37:45;10.48;;;7.47;;
21158;SDS011;10737;45.436;4.390;2023-02-28T07:42:50;9.30;;;7.70;;
21158;SDS011;10737;45.436;4.390;2023-02-28T07:47:53;10.73;;;8.00;;
21158;SDS011;10737;45.436;4.390;2023-02-28T07:52:56;9.02;;;8.02;;
21158;SDS011;10737;45.436;4.390;2023-02-28T07:58:01;8.65;;;7.85;;
21158;SDS011;10737;45.436;4.390;2023-02-28T08:03:04;9.73;;;8.18;;
21158;SDS011;10737;45.436;4.390;2023-02-28T08:08:07;7.82;;;7.03;;
21158;SDS011;10737;45.436;4.390;2023-02-28T08:13:12;8.23;;;7.43;;
21158;SDS011;10737;45.436;4.390;2023-02-28T08:18:15;9.88;;;7.90;;
21158;SDS011;10737;45.436;4.390;2023-02-28T08:23:18;8.35;;;7.10;;
21158;SDS011;10737;45.436;4.390;2023-02-28T08:28:23;8.48;;;7.57;;
21158;SDS011;10737;45.436;4.390;2023-02-28T08:33:28;7.10;;;6.50;;
21158;SDS011;10737;45.436;4.390;2023-02-28T08:38:31;9.13;;;6.80;;
21158;SDS011;10737;45.436;4.390;2023-02-28T08:43:35;7.45;;;6.55;;
21158;SDS011;10737;45.436;4.390;2023-02-28T08:48:38;7.80;;;7.00;;
21158;SDS011;10737;45.436;4.390;2023-02-28T08:53:41;8.32;;;7.22;;
21158;SDS011;10737;45.436;4.390;2023-02-28T08:58:46;8.52;;;6.80;;
21158;SDS011;10737;45.436;4.390;2023-02-28T09:03:51;8.57;;;6.88;;
21158;SDS011;10737;45.436;4.390;2023-02-28T09:08:55;7.50;;;6.22;;
21158;SDS011;10737;45.436;4.390;2023-02-28T09:14:02;7.78;;;6.47;;
21158;SDS011;10737;45.436;4.390;2023-02-28T09:19:06;7.80;;;7.10;;
21158;SDS011;10737;45.436;4.390;2023-02-28T09:24:09;7.55;;;6.78;;
21158;SDS011;10737;45.436;4.390;2023-02-28T09:29:14;10.98;;;7.32;;
21158;SDS011;10737;45.436;4.390;2023-02-28T09:34:19;10.38;;;6.53;;
21158;SDS011;10737;45.436;4.390;2023-02-28T09:39:22;8.20;;;7.35;;
21158;SDS011;10737;45.436;4.390;2023-02-28T09:44:29;8.30;;;7.50;;
21158;SDS011;10737;45.436;4.390;2023-02-28T09:49:36;7.70;;;7.00;;
21158;SDS011;10737;45.436;4.390;2023-02-28T09:54:40;8.57;;;6.90;;
21158;SDS011;10737;45.436;4.390;2023-02-28T09:59:51;7.38;;;6.68;;
21158;SDS011;10737;45.436;4.390;2023-02-28T10:04:58;9.10;;;7.82;;
21158;SDS011;10737;45.436;4.390;2023-02-28T10:10:03;14.48;;;10.07;;
21158;SDS011;10737;45.436;4.390;2023-02-28T10:15:09;8.43;;;6.38;;
21158;SDS011;10737;45.436;4.390;2023-02-28T10:20:17;7.43;;;6.72;;
21158;SDS011;10737;45.436;4.390;2023-02-28T10:25:23;7.55;;;6.72;;
21158;SDS011;10737;45.436;4.390;2023-02-28T10:30:28;7.68;;;6.88;;
21158;SDS011;10737;45.436;4.390;2023-02-28T10:35:31;8.40;;;6.45;;
21158;SDS011;10737;45.436;4.390;2023-02-28T10:40:35;7.05;;;6.30;;
21158;SDS011;10737;45.436;4.390;2023-02-28T10:45:46;10.60;;;7.15;;
21158;SDS011;10737;45.436;4.390;2023-02-28T10:50:55;9.13;;;7.57;;
21158;SDS011;10737;45.436;4.390;2023-02-28T10:56:00;7.65;;;6.93;;
21158;SDS011;10737;45.436;4.390;2023-02-28T11:01:08;8.73;;;7.82;;
21158;SDS011;10737;45.436;4.390;2023-02-28T11:06:16;12.15;;;7.80;;
21158;SDS011;10737;45.436;4.390;2023-02-28T11:11:21;10.52;;;7.88;;
21158;SDS011;10737;45.436;4.390;2023-02-28T11:16:33;20.25;;;13.27;;
21158;SDS011;10737;45.436;4.390;2023-02-28T11:21:37;21.85;;;12.32;;
21158;SDS011;10737;45.436;4.390;2023-02-28T11:26:42;13.88;;;10.25;;
21158;SDS011;10737;45.436;4.390;2023-02-28T11:37:20;15.27;;;12.13;;
21158;SDS011;10737;45.436;4.390;2023-02-28T11:42:30;13.80;;;9.52;;
21158;SDS011;10737;45.436;4.390;2023-02-28T11:47:36;9.95;;;8.38;;
21158;SDS011;10737;45.436;4.390;2023-02-28T11:52:43;9.32;;;8.43;;
21158;SDS011;10737;45.436;4.390;2023-02-28T12:03:16;34.42;;;20.85;;
21158;SDS011;10737;45.436;4.390;2023-02-28T12:08:26;9.20;;;8.27;;
21158;SDS011;10737;45.436;4.390;2023-02-28T12:13:33;10.23;;;9.20;;
21158;SDS011;10737;45.436;4.390;2023-02-28T12:18:43;10.90;;;9.80;;
21158;SDS011;10737;45.436;4.390;2023-02-28T12:23:59;10.55;;;9.55;;
21158;SDS011;10737;45.436;4.390;2023-02-28T12:29:09;10.57;;;9.10;;
21158;SDS011;10737;45.436;4.390;2023-02-28T12:34:14;12.63;;;10.77;;
21158;SDS011;10737;45.436;4.390;2023-02-28T12:39:21;11.77;;;10.43;;
21158;SDS011;10737;45.436;4.390;2023-02-28T12:44:27;21.92;;;14.77;;
21158;SDS011;10737;45.436;4.390;2023-02-28T12:49:32;10.75;;;9.65;;
21158;SDS011;10737;45.436;4.390;2023-02-28T12:54:40;22.67;;;15.50;;
21158;SDS011;10737;45.436;4.390;2023-02-28T12:59:48;17.52;;;12.80;;
21158;SDS011;10737;45.436;4.390;2023-02-28T13:05:12;12.45;;;9.82;;
21158;SDS011;10737;45.436;4.390;2023-02-28T13:10:24;10.27;;;9.38;;
21158;SDS011;10737;45.436;4.390;2023-02-28T13:15:28;11.13;;;10.05;;
21158;SDS011;10737;45.436;4.390;2023-02-28T13:20:33;14.85;;;9.43;;
21158;SDS011;10737;45.436;4.390;2023-02-28T13:31:04;12.35;;;10.52;;
21158;SDS011;10737;45.436;4.390;2023-02-28T13:36:09;11.38;;;10.27;;
21158;SDS011;10737;45.436;4.390;2023-02-28T13:46:38;11.23;;;9.98;;
21158;SDS011;10737;45.436;4.390;2023-02-28T13:52:02;11.45;;;10.25;;
21158;SDS011;10737;45.436;4.390;2023-02-28T13:57:12;11.13;;;9.95;;
21158;SDS011;10737;45.436;4.390;2023-02-28T14:02:29;11.30;;;10.15;;
21158;SDS011;10737;45.436;4.390;2023-02-28T14:07:37;13.10;;;10.30;;
21158;SDS011;10737;45.436;4.390;2023-02-28T14:18:05;13.05;;;9.48;;
21158;SDS011;10737;45.436;4.390;2023-02-28T14:23:15;10.73;;;9.60;;
21158;SDS011;10737;45.436;4.390;2023-02-28T14:28:21;11.18;;;9.63;;
21158;SDS011;10737;45.436;4.390;2023-02-28T14:33:48;11.10;;;9.70;;
21158;SDS011;10737;45.436;4.390;2023-02-28T14:39:00;19.20;;;10.93;;
21158;SDS011;10737;45.436;4.390;2023-02-28T14:44:13;12.43;;;11.10;;
21158;SDS011;10737;45.436;4.390;2023-02-28T14:49:19;11.65;;;10.35;;
21158;SDS011;10737;45.436;4.390;2023-02-28T14:54:23;11.35;;;10.23;;
21158;SDS011;10737;45.436;4.390;2023-02-28T14:59:27;11.35;;;10.15;;
21158;SDS011;10737;45.436;4.390;2023-02-28T15:04:32;13.85;;;9.77;;
21158;SDS011;10737;45.436;4.390;2023-02-28T15:09:36;10.80;;;9.70;;
21158;SDS011;10737;45.436;4.390;2023-02-28T15:14:39;11.43;;;10.32;;
21158;SDS011;10737;45.436;4.390;2023-02-28T15:19:47;11.05;;;9.63;;
21158;SDS011;10737;45.436;4.390;2023-02-28T15:24:51;17.25;;;12.23;;
21158;SDS011;10737;45.436;4.390;2023-02-28T15:29:56;11.25;;;10.07;;
21158;SDS011;10737;45.436;4.390;2023-02-28T15:40:22;11.60;;;10.38;;
21158;SDS011;10737;45.436;4.390;2023-02-28T15:45:26;13.50;;;10.45;;
21158;SDS011;10737;45.436;4.390;2023-02-28T15:50:31;13.27;;;10.82;;
21158;SDS011;10737;45.436;4.390;2023-02-28T15:55:35;10.82;;;9.73;;
21158;SDS011;10737;45.436;4.390;2023-02-28T16:00:39;11.95;;;9.77;;
21158;SDS011;10737;45.436;4.390;2023-02-28T16:05:50;14.30;;;10.88;;
21158;SDS011;10737;45.436;4.390;2023-02-28T16:11:08;12.85;;;10.63;;
21158;SDS011;10737;45.436;4.390;2023-02-28T16:16:14;11.95;;;10.75;;
21158;SDS011;10737;45.436;4.390;2023-02-28T16:21:19;15.73;;;12.18;;
21158;SDS011;10737;45.436;4.390;2023-02-28T16:26:23;12.75;;;11.10;;
21158;SDS011;10737;45.436;4.390;2023-02-28T16:31:28;11.25;;;10.10;;
21158;SDS011;10737;45.436;4.390;2023-02-28T16:36:33;11.85;;;10.20;;
21158;SDS011;10737;45.436;4.390;2023-02-28T16:41:36;12.32;;;11.00;;
21158;SDS011;10737;45.436;4.390;2023-02-28T16:46:39;12.43;;;10.90;;
21158;SDS011;10737;45.436;4.390;2023-02-28T16:51:44;11.07;;;9.85;;
21158;SDS011;10737;45.436;4.390;2023-02-28T16:56:48;16.45;;;13.50;;
21158;SDS011;10737;45.436;4.390;2023-02-28T17:01:51;15.10;;;11.30;;
21158;SDS011;10737;45.436;4.390;2023-02-28T17:06:56;12.23;;;10.82;;
21158;SDS011;10737;45.436;4.390;2023-02-28T17:12:00;12.25;;;10.18;;
21158;SDS011;10737;45.436;4.390;2023-02-28T17:17:03;16.00;;;11.68;;
21158;SDS011;10737;45.436;4.390;2023-02-28T17:22:09;13.48;;;12.02;;
21158;SDS011;10737;45.436;4.390;2023-02-28T17:27:12;12.88;;;11.43;;
21158;SDS011;10737;45.436;4.390;2023-02-28T17:32:15;15.63;;;11.55;;
21158;SDS011;10737;45.436;4.390;2023-02-28T17:37:21;15.45;;;12.18;;
21158;SDS011;10737;45.436;4.390;2023-02-28T17:42:24;12.73;;;10.90;;
21158;SDS011;10737;45.436;4.390;2023-02-28T17:47:27;16.90;;;12.68;;
21158;SDS011;10737;45.436;4.390;2023-02-28T17:52:31;14.52;;;12.00;;
21158;SDS011;10737;45.436;4.390;2023-02-28T17:57:38;16.75;;;13.38;;
21158;SDS011;10737;45.436;4.390;2023-02-28T18:02:43;19.42;;;14.23;;
21158;SDS011;10737;45.436;4.390;2023-02-28T18:07:48;15.73;;;13.45;;
21158;SDS011;10737;45.436;4.390;2023-02-28T18:12:51;15.02;;;12.90;;
21158;SDS011;10737;45.436;4.390;2023-02-28T18:17:55;24.58;;;14.73;;
21158;SDS011;10737;45.436;4.390;2023-02-28T18:23:00;15.30;;;12.90;;
21158;SDS011;10737;45.436;4.390;2023-02-28T18:28:03;18.73;;;14.15;;
21158;SDS011;10737;45.436;4.390;2023-02-28T18:33:06;19.95;;;15.25;;
21158;SDS011;10737;45.436;4.390;2023-02-28T18:38:12;24.08;;;15.80;;
21158;SDS011;10737;45.436;4.390;2023-02-28T18:43:15;22.48;;;16.23;;
21158;SDS011;10737;45.436;4.390;2023-02-28T18:48:19;22.00;;;15.27;;
21158;SDS011;10737;45.436;4.390;2023-02-28T18:53:25;37.92;;;23.90;;
21158;SDS011;10737;45.436;4.390;2023-02-28T18:58:29;17.63;;;13.82;;
21158;SDS011;10737;45.436;4.390;2023-02-28T19:03:34;20.23;;;15.18;;
21158;SDS011;10737;45.436;4.390;2023-02-28T19:08:38;20.17;;;14.70;;
21158;SDS011;10737;45.436;4.390;2023-02-28T19:13:42;25.35;;;17.27;;
21158;SDS011;10737;45.436;4.390;2023-02-28T19:18:45;20.75;;;15.02;;
21158;SDS011;10737;45.436;4.390;2023-02-28T19:23:50;18.10;;;13.85;;
21158;SDS011;10737;45.436;4.390;2023-02-28T19:28:53;16.75;;;13.10;;
21158;SDS011;10737;45.436;4.390;2023-02-28T19:33:56;19.48;;;11.98;;
21158;SDS011;10737;45.436;4.390;2023-02-28T19:39:01;19.83;;;13.75;;
21158;SDS011;10737;45.436;4.390;2023-02-28T19:44:04;32.20;;;20.67;;
21158;SDS011;10737;45.436;4.390;2023-02-28T19:49:07;19.08;;;13.73;;
21158;SDS011;10737;45.436;4.390;2023-02-28T19:54:12;16.27;;;13.00;;
21158;SDS011;10737;45.436;4.390;2023-02-28T19:59:15;16.17;;;13.43;;
21158;SDS011;10737;45.436;4.390;2023-02-28T20:04:22;17.70;;;13.48;;
21158;SDS011;10737;45.436;4.390;2023-02-28T20:09:29;19.67;;;13.40;;
21158;SDS011;10737;45.436;4.390;2023-02-28T20:14:33;19.00;;;13.95;;
21158;SDS011;10737;45.436;4.390;2023-02-28T20:19:36;14.52;;;12.85;;
21158;SDS011;10737;45.436;4.390;2023-02-28T20:24:41;16.95;;;13.82;;
21158;SDS011;10737;45.436;4.390;2023-02-28T20:29:44;27.23;;;14.63;;
21158;SDS011;10737;45.436;4.390;2023-02-28T20:34:47;17.77;;;12.82;;
21158;SDS011;10737;45.436;4.390;2023-02-28T20:39:51;30.02;;;19.70;;
21158;SDS011;10737;45.436;4.390;2023-02-28T20:44:55;28.10;;;18.40;;
21158;SDS011;10737;45.436;4.390;2023-02-28T20:49:58;20.30;;;15.20;;
21158;SDS011;10737;45.436;4.390;2023-02-28T20:55:02;16.02;;;13.75;;
21158;SDS011;10737;45.436;4.390;2023-02-28T21:00:06;17.92;;;14.35;;
21158;SDS011;10737;45.436;4.390;2023-02-28T21:05:10;16.45;;;13.63;;
21158;SDS011;10737;45.436;4.390;2023-02-28T21:10:15;25.10;;;18.63;;
21158;SDS011;10737;45.436;4.390;2023-02-28T21:15:18;36.53;;;23.23;;
21158;SDS011;10737;45.436;4.390;2023-02-28T21:20:22;18.50;;;15.30;;
21158;SDS011;10737;45.436;4.390;2023-02-28T21:25:26;17.95;;;12.32;;
21158;SDS011;10737;45.436;4.390;2023-02-28T21:30:29;14.77;;;12.95;;
21158;SDS011;10737;45.436;4.390;2023-02-28T21:35:33;19.23;;;14.55;;
21158;SDS011;10737;45.436;4.390;2023-02-28T21:40:37;17.35;;;13.60;;
21158;SDS011;10737;45.436;4.390;2023-02-28T21:45:40;17.42;;;13.40;;
21158;SDS011;10737;45.436;4.390;2023-02-28T21:50:53;15.73;;;12.02;;
21158;SDS011;10737;45.436;4.390;2023-02-28T21:55:59;15.23;;;12.82;;
21158;SDS011;10737;45.436;4.390;2023-02-28T22:01:04;14.57;;;11.45;;
21158;SDS011;10737;45.436;4.390;2023-02-28T22:06:11;16.10;;;12.15;;
21158;SDS011;10737;45.436;4.390;2023-02-28T22:11:16;14.30;;;12.73;;
21158;SDS011;10737;45.436;4.390;2023-02-28T22:16:19;14.65;;;12.60;;
21158;SDS011;10737;45.436;4.390;2023-02-28T22:21:23;12.38;;;11.05;;
21158;SDS011;10737;45.436;4.390;2023-02-28T22:26:28;14.25;;;12.00;;
21158;SDS011;10737;45.436;4.390;2023-02-28T22:31:32;14.25;;;11.73;;
21158;SDS011;10737;45.436;4.390;2023-02-28T22:36:35;12.45;;;11.15;;
21158;SDS011;10737;45.436;4.390;2023-02-28T22:41:40;13.25;;;11.73;;
21158;SDS011;10737;45.436;4.390;2023-02-28T22:46:43;24.85;;;19.42;;
21158;SDS011;10737;45.436;4.390;2023-02-28T22:51:46;14.93;;;12.25;;
21158;SDS011;10737;45.436;4.390;2023-02-28T22:56:51;14.40;;;12.90;;
21158;SDS011;10737;45.436;4.390;2023-02-28T23:01:54;13.68;;;11.77;;
21158;SDS011;10737;45.436;4.390;2023-02-28T23:06:57;12.95;;;11.68;;
21158;SDS011;10737;45.436;4.390;2023-02-28T23:12:02;13.95;;;12.00;;
21158;SDS011;10737;45.436;4.390;2023-02-28T23:17:05;21.08;;;16.42;;
21158;SDS011;10737;45.436;4.390;2023-02-28T23:22:08;16.08;;;13.00;;
21158;SDS011;10737;45.436;4.390;2023-02-28T23:27:13;13.60;;;12.02;;
21158;SDS011;10737;45.436;4.390;2023-02-28T23:32:16;16.80;;;12.65;;
21158;SDS011;10737;45.436;4.390;2023-02-28T23:37:19;15.45;;;12.02;;
21158;SDS011;10737;45.436;4.390;2023-02-28T23:42:24;16.35;;;13.60;;
21158;SDS011;10737;45.436;4.390;2023-02-28T23:47:27;14.40;;;12.30;;
21158;SDS011;10737;45.436;4.390;2023-02-28T23:52:31;14.27;;;12.05;;
21158;SDS011;10737;45.436;4.390;2023-02-28T23:57:36;15.02;;;12.30;;
